createdAt,value
2017-01-03T00:09:30.357Z,1013.4
2017-01-03T00:19:42.760Z,1013.3
2017-01-03T00:29:55.138Z,1013.2
2017-01-03T00:40:07.541Z,1013
2017-01-03T00:50:20.013Z,1013.1
2017-01-03T01:00:32.417Z,1013.2
2017-01-03T01:10:44.895Z,1013.2
2017-01-03T01:20:57.321Z,1013.3
2017-01-03T01:31:09.817Z,1013.5
2017-01-03T01:41:22.289Z,1013.5
2017-01-03T01:51:34.716Z,1013.4
2017-01-03T02:01:47.054Z,1013.4
2017-01-03T02:11:59.438Z,1013.4
2017-01-03T02:22:11.826Z,1013.4
2017-01-03T02:32:24.248Z,1013.4
2017-01-03T02:42:36.658Z,1013.2
2017-01-03T02:52:49.049Z,1013.2
2017-01-03T03:03:01.383Z,1013.1
2017-01-03T03:13:13.755Z,1013.1
2017-01-03T03:23:26.113Z,1013.1
2017-01-03T03:33:38.541Z,1013
2017-01-03T03:43:50.947Z,1013.1
2017-01-03T03:54:03.307Z,1013.1
2017-01-03T04:04:15.685Z,1013.1
2017-01-03T04:14:28.004Z,1013
2017-01-03T04:24:40.262Z,1012.9
2017-01-03T04:34:52.515Z,1012.7
2017-01-03T04:45:04.836Z,1012.7
2017-01-03T04:55:17.179Z,1012.3
2017-01-03T05:05:29.344Z,1012.4
2017-01-03T05:15:41.483Z,1012.3
2017-01-03T05:25:53.642Z,1012.5
2017-01-03T05:36:05.753Z,1012.5
2017-01-03T05:46:17.861Z,1012.4
2017-01-03T05:56:29.971Z,1012.3
2017-01-03T06:06:41.994Z,1012.5
2017-01-03T06:16:54.104Z,1012.1
2017-01-03T06:27:06.143Z,1012.2
2017-01-03T06:37:18.190Z,1012.4
2017-01-03T06:47:30.204Z,1012.4
2017-01-03T06:57:42.262Z,1012.1
2017-01-03T07:07:54.291Z,1012.1
2017-01-03T07:18:06.322Z,1012.3
2017-01-03T07:28:18.323Z,1012.5
2017-01-03T07:38:30.282Z,1012.3
2017-01-03T07:48:42.263Z,1012.4
2017-01-03T07:58:54.143Z,1012.5
2017-01-03T08:09:06.035Z,1012.3
2017-01-03T08:19:17.900Z,1012.4
2017-01-03T08:29:29.790Z,1012.4
2017-01-03T08:39:41.626Z,1012.6
2017-01-03T08:49:53.422Z,1012.5
2017-01-03T09:00:05.208Z,1012.7
2017-01-03T09:10:17.033Z,1012.5
2017-01-03T09:20:28.860Z,1012.4
2017-01-03T09:30:40.673Z,1012.6
2017-01-03T09:40:52.396Z,1012.4
2017-01-03T09:51:04.175Z,1012.6
2017-01-03T10:01:15.982Z,1012.4
2017-01-03T10:11:27.691Z,1012.5
2017-01-03T10:21:39.390Z,1012.4
2017-01-03T10:31:51.050Z,1012.2
2017-01-03T10:42:02.679Z,1012
2017-01-03T10:52:14.310Z,1011.8
2017-01-03T11:02:25.872Z,1011.7
2017-01-03T11:12:37.431Z,1011.1
2017-01-03T11:22:49.016Z,1011.1
2017-01-03T11:43:11.888Z,1010.9
2017-01-03T11:53:23.176Z,1011
2017-01-03T12:03:34.440Z,1011.1
2017-01-03T12:13:45.752Z,1011.1
2017-01-03T12:23:57.216Z,1010.5
2017-01-03T12:34:08.738Z,1010.6
2017-01-03T12:44:20.303Z,1010.5
2017-01-03T12:54:31.845Z,1010.3
2017-01-03T13:04:43.361Z,1010.4
2017-01-03T13:14:54.851Z,1009.9
2017-01-03T13:25:06.431Z,1009.9
2017-01-03T13:35:17.977Z,1009.9
2017-01-03T13:45:29.570Z,1009.6
2017-01-03T13:55:41.161Z,1009.6
2017-01-03T14:05:52.801Z,1008.9
2017-01-03T14:16:04.495Z,1009.4
2017-01-03T14:26:16.155Z,1009.2
2017-01-03T14:36:27.833Z,1009
2017-01-03T14:46:39.543Z,1008.9
2017-01-03T14:56:51.314Z,1008.8
2017-01-03T15:07:03.060Z,1008.8
2017-01-03T15:17:14.792Z,1008.9
2017-01-03T15:27:26.592Z,1008.4
2017-01-03T15:37:38.446Z,1008.2
2017-01-03T15:47:50.244Z,1008.3
2017-01-03T15:58:02.177Z,1008.4
2017-01-03T16:08:14.015Z,1008.3
2017-01-03T16:18:25.820Z,1008.5
2017-01-03T16:28:37.651Z,1007.7
2017-01-03T16:38:49.460Z,1007.7
2017-01-03T16:49:01.269Z,1007.8
2017-01-03T16:59:13.018Z,1007.4
2017-01-03T17:09:24.820Z,1007.6
2017-01-03T17:19:36.591Z,1007.7
2017-01-03T17:29:48.375Z,1007.6
2017-01-03T17:40:00.162Z,1007.3
2017-01-03T17:50:11.963Z,1007.3
2017-01-03T18:00:23.789Z,1007.3
2017-01-03T18:10:35.658Z,1007.2
2017-01-03T18:20:47.493Z,1007.2
2017-01-03T18:30:59.272Z,1007.2
2017-01-03T18:41:11.162Z,1006.8
2017-01-03T18:51:23.026Z,1007.2
2017-01-03T19:01:34.859Z,1006.7
2017-01-03T19:11:46.674Z,1006.2
2017-01-03T19:21:58.526Z,1006.4
2017-01-03T19:32:10.300Z,1006
2017-01-03T19:42:22.075Z,1005.5
2017-01-03T19:52:33.828Z,1005.4
2017-01-03T20:02:45.563Z,1005.7
2017-01-03T20:12:57.279Z,1005.2
2017-01-03T20:23:08.989Z,1005.4
2017-01-03T20:33:20.727Z,1005.3
2017-01-03T20:43:32.446Z,1005.6
2017-01-03T20:53:44.067Z,1005
2017-01-03T21:03:55.694Z,1005.1
2017-01-03T21:14:07.264Z,1004.8
2017-01-03T21:24:18.869Z,1004.8
2017-01-03T21:34:30.501Z,1004.6
2017-01-03T21:44:42.104Z,1004.6
2017-01-03T21:54:53.754Z,1004.1
2017-01-03T22:05:05.382Z,1004.2
2017-01-03T22:15:17.056Z,1004
2017-01-03T22:25:28.703Z,1003.8
2017-01-03T22:35:40.355Z,1003.4
2017-01-03T22:45:51.968Z,1003.3
2017-01-03T22:56:03.564Z,1003.3
2017-01-03T23:06:15.222Z,1003.3
2017-01-03T23:16:26.786Z,1003.4
2017-01-03T23:26:38.295Z,1003.3
2017-01-03T23:36:49.835Z,1003.5
2017-01-03T23:47:01.355Z,1003.5
2017-01-03T23:57:12.872Z,1003.6
